Time;durP1;ratioP1;P1;durP2;ratioP2;P2;SDS_P1;SDS_P2;PMS_P1;PMS_P2;Temp;Humidity;BMP_temperature;BMP_pressure;BME280_temperature;BME280_humidity;BME280_pressure;Samples;Min_cycle;Max_cycle;Signal;HPM_P1;HPM_P2
2021/04/04 00:00:05;;;;;;;4.53;2.53;;;5.50;75.90;;;;;;5016473;28;20441;-57
2021/04/04 00:02:31;;;;;;;4.90;2.63;;;5.40;77.00;;;;;;5016946;28;20446;-53
2021/04/04 00:04:57;;;;;;;3.03;2.07;;;5.40;79.20;;;;;;5015722;28;20537;-56
2021/04/04 00:07:23;;;;;;;5.43;2.90;;;5.50;79.90;;;;;;5016923;28;20422;-52
2021/04/04 00:09:51;;;;;;;5.23;3.40;;;5.40;80.80;;;;;;5016213;28;20481;-54
2021/04/04 00:12:18;;;;;;;5.57;3.40;;;5.40;82.10;;;;;;5016692;28;20445;-53
2021/04/04 00:14:44;;;;;;;7.13;3.80;;;5.40;84.20;;;;;;5015907;28;20442;-52
2021/04/04 00:17:11;;;;;;;8.27;4.00;;;5.40;85.20;;;;;;5016473;28;20753;-54
2021/04/04 00:19:37;;;;;;;7.00;3.90;;;5.40;86.80;;;;;;5016883;28;20446;-56
2021/04/04 00:22:03;;;;;;;6.27;3.30;;;5.40;88.30;;;;;;5015884;28;20428;-55
2021/04/04 00:24:29;;;;;;;6.23;3.40;;;5.40;89.10;;;;;;5016132;28;20509;-49
2021/04/04 00:26:55;;;;;;;6.50;3.73;;;5.30;89.30;;;;;;5016046;28;20453;-51
2021/04/04 00:29:22;;;;;;;4.70;3.37;;;5.30;90.10;;;;;;5016547;28;20434;-49
2021/04/04 00:31:51;;;;;;;4.87;4.30;;;5.20;90.80;;;;;;5015967;28;20446;-53
2021/04/04 00:34:17;;;;;;;6.20;3.93;;;5.20;91.70;;;;;;5016700;28;20442;-48
2021/04/04 00:36:44;;;;;;;8.53;4.40;;;5.30;92.30;;;;;;5016821;28;20433;-49
2021/04/04 00:39:12;;;;;;;5.07;3.97;;;5.20;92.60;;;;;;5016779;28;20446;-55
2021/04/04 00:41:38;;;;;;;5.50;3.80;;;5.30;92.80;;;;;;5016801;28;20464;-55
2021/04/04 00:44:05;;;;;;;7.93;3.77;;;5.30;92.90;;;;;;5016259;28;20469;-51
2021/04/04 00:46:32;;;;;;;10.47;5.10;;;5.20;93.00;;;;;;5019985;28;20426;-49
2021/04/04 00:49:01;;;;;;;4.43;3.20;;;5.10;93.30;;;;;;5019780;28;20510;-51
2021/04/04 00:51:29;;;;;;;7.97;3.70;;;5.10;93.60;;;;;;5019480;28;20450;-52
2021/04/04 00:53:58;;;;;;;7.53;4.67;;;5.20;93.90;;;;;;5019698;28;20422;-53
2021/04/04 00:56:24;;;;;;;8.30;4.10;;;5.10;94.40;;;;;;5019949;28;20422;-55
2021/04/04 00:58:51;;;;;;;6.27;3.57;;;5.10;94.70;;;;;;5019615;28;20450;-54
2021/04/04 01:01:21;;;;;;;7.50;4.70;;;5.10;95.20;;;;;;5019585;28;20479;-56
2021/04/04 01:03:50;;;;;;;7.70;4.30;;;5.10;95.20;;;;;;5019909;28;20461;-54
2021/04/04 01:06:17;;;;;;;4.83;3.80;;;5.10;95.60;;;;;;5020117;28;20461;-56
2021/04/04 01:08:43;;;;;;;7.63;4.83;;;5.10;95.60;;;;;;5019436;28;20442;-56
2021/04/04 01:11:12;;;;;;;5.67;4.57;;;5.10;95.90;;;;;;5019467;28;20422;-55
2021/04/04 01:13:42;;;;;;;7.50;5.13;;;5.10;96.20;;;;;;5020083;28;20551;-56
2021/04/04 01:16:14;;;;;;;6.47;4.47;;;5.10;96.40;;;;;;5019155;28;20442;-56
2021/04/04 01:18:47;;;;;;;8.50;5.10;;;5.00;96.70;;;;;;5019376;28;20437;-56
2021/04/04 01:21:19;;;;;;;5.30;3.90;;;5.00;96.80;;;;;;5019631;28;20430;-54
2021/04/04 01:24:21;;;;;;;8.73;5.80;;;5.00;97.30;;;;;;5019287;28;20454;-53
2021/04/04 01:26:54;;;;;;;8.27;5.30;;;5.00;97.80;;;;;;5018818;28;20440;-54
2021/04/04 01:29:24;;;;;;;6.70;4.53;;;4.90;98.30;;;;;;5019595;28;20411;-55
2021/04/04 01:31:51;;;;;;;10.90;5.63;;;5.00;98.70;;;;;;5018897;28;20441;-53
2021/04/04 01:34:19;;;;;;;6.77;5.20;;;5.00;99.20;;;;;;5019182;28;20482;-53
2021/04/04 01:36:50;;;;;;;5.80;4.70;;;5.00;99.60;;;;;;5019292;28;20473;-52
2021/04/04 01:39:22;;;;;;;8.63;5.10;;;4.90;99.80;;;;;;5018934;28;20430;-55
2021/04/04 01:41:50;;;;;;;10.47;5.00;;;4.80;99.90;;;;;;5018967;28;20418;-52
2021/04/04 01:44:18;;;;;;;8.50;5.00;;;4.80;99.90;;;;;;5019257;28;20462;-53
2021/04/04 01:46:48;;;;;;;6.70;4.30;;;4.90;99.90;;;;;;5018816;28;20442;-49
2021/04/04 01:49:14;;;;;;;7.10;4.23;;;4.80;99.90;;;;;;5018923;28;20457;-49
2021/04/04 01:51:42;;;;;;;9.70;4.73;;;4.80;99.90;;;;;;5018861;28;20442;-50
2021/04/04 01:54:11;;;;;;;7.40;4.00;;;4.70;99.90;;;;;;5019206;28;20426;-58
2021/04/04 01:56:41;;;;;;;6.80;4.90;;;4.60;99.90;;;;;;5017117;28;20446;-54
2021/04/04 01:59:09;;;;;;;9.20;4.70;;;4.50;99.90;;;;;;5018699;28;20542;-53
2021/04/04 02:01:36;;;;;;;10.70;5.20;;;4.50;99.90;;;;;;5018510;28;20522;-50
2021/04/04 02:04:07;;;;;;;4.30;3.77;;;4.50;99.90;;;;;;5018827;28;20569;-50
2021/04/04 02:06:34;;;;;;;6.70;4.37;;;4.60;99.90;;;;;;5018787;28;20427;-51
2021/04/04 02:09:03;;;;;;;5.40;3.97;;;4.50;99.90;;;;;;5018949;28;20458;-51
2021/04/04 02:11:33;;;;;;;7.17;4.30;;;4.50;99.90;;;;;;5018777;28;20438;-52
2021/04/04 02:14:02;;;;;;;4.67;4.13;;;4.40;99.90;;;;;;5018235;28;20438;-49
2021/04/04 02:16:29;;;;;;;10.00;5.17;;;4.40;99.90;;;;;;5017996;28;20455;-50
2021/04/04 02:18:56;;;;;;;6.30;4.67;;;4.40;99.90;;;;;;5018513;28;20461;-59
2021/04/04 02:21:28;;;;;;;6.57;3.40;;;4.30;99.90;;;;;;5018043;28;20442;-52
2021/04/04 02:23:54;;;;;;;4.73;3.53;;;4.40;99.90;;;;;;5017964;28;20454;-54
2021/04/04 02:26:21;;;;;;;6.60;4.53;;;4.40;99.90;;;;;;5017579;28;20438;-51
2021/04/04 02:28:50;;;;;;;6.33;4.07;;;4.40;99.90;;;;;;5018085;28;20423;-52
2021/04/04 02:31:22;;;;;;;5.70;3.63;;;4.40;99.90;;;;;;5017811;28;20446;-53
2021/04/04 02:33:53;;;;;;;5.23;4.03;;;4.40;99.90;;;;;;5017386;28;20415;-51
2021/04/04 02:36:20;;;;;;;5.80;3.73;;;4.40;99.90;;;;;;5017891;28;20429;-53
2021/04/04 02:38:52;;;;;;;6.57;4.63;;;4.40;99.90;;;;;;5017866;28;20433;-52
2021/04/04 02:41:25;;;;;;;6.43;4.43;;;4.30;99.90;;;;;;5017864;28;20434;-56
2021/04/04 02:43:55;;;;;;;4.70;4.13;;;4.40;99.90;;;;;;5017453;28;20533;-50
2021/04/04 02:46:26;;;;;;;5.60;3.70;;;4.30;99.90;;;;;;5017839;28;20430;-49
2021/04/04 02:48:56;;;;;;;4.93;3.83;;;4.30;99.90;;;;;;5017796;28;20446;-50
2021/04/04 02:51:27;;;;;;;7.97;5.20;;;4.20;99.90;;;;;;5017540;28;20477;-52
2021/04/04 02:53:57;;;;;;;5.50;4.50;;;4.20;99.90;;;;;;5017416;28;20485;-52
2021/04/04 02:56:25;;;;;;;8.23;4.60;;;4.20;99.90;;;;;;5017503;28;20437;-53
2021/04/04 03:04:04;;;;;;;4.37;3.83;;;4.20;99.90;;;;;;4661886;26;20529;-53
2021/04/04 03:06:32;;;;;;;7.17;4.20;;;4.20;99.90;;;;;;4959637;29;20440;-50
2021/04/04 03:09:03;;;;;;;7.70;3.80;;;4.20;99.90;;;;;;4959210;29;20481;-47
2021/04/04 03:11:30;;;;;;;8.37;4.53;;;4.20;99.90;;;;;;4959554;29;20421;-52
2021/04/04 03:13:57;;;;;;;7.43;4.27;;;4.20;99.90;;;;;;4960962;29;20456;-50
2021/04/04 03:16:24;;;;;;;7.53;4.47;;;4.20;99.90;;;;;;4960693;29;20445;-48
2021/04/04 03:18:52;;;;;;;4.27;3.83;;;4.30;99.90;;;;;;4958845;29;20449;-48
2021/04/04 03:21:19;;;;;;;7.20;4.00;;;4.20;99.90;;;;;;4958589;29;20445;-47
2021/04/04 03:23:46;;;;;;;5.27;4.17;;;4.20;99.90;;;;;;4958491;29;20440;-46
2021/04/04 03:26:14;;;;;;;4.73;3.73;;;4.20;99.90;;;;;;4958373;29;20459;-49
2021/04/04 03:28:42;;;;;;;4.90;3.40;;;4.20;99.90;;;;;;4958504;29;20441;-48
2021/04/04 03:31:09;;;;;;;10.47;4.60;;;4.20;99.90;;;;;;4958481;29;20463;-48
2021/04/04 03:33:35;;;;;;;8.33;4.10;;;4.10;99.90;;;;;;4958726;29;20448;-49
2021/04/04 03:36:02;;;;;;;6.07;3.70;;;4.10;99.90;;;;;;4958703;29;20452;-50
2021/04/04 03:38:29;;;;;;;6.93;4.27;;;4.10;99.90;;;;;;4959003;29;20465;-50
2021/04/04 03:40:56;;;;;;;7.43;3.40;;;4.20;99.90;;;;;;4958891;29;20440;-50
2021/04/04 03:43:26;;;;;;;5.03;4.10;;;4.10;99.90;;;;;;4958822;29;20445;-47
2021/04/04 03:45:54;;;;;;;5.90;3.93;;;4.10;99.90;;;;;;4958725;29;20467;-50
2021/04/04 03:48:21;;;;;;;5.77;3.73;;;4.10;99.90;;;;;;4958779;29;20455;-50
2021/04/04 03:50:49;;;;;;;7.40;3.80;;;4.10;99.90;;;;;;4958699;29;20428;-49
2021/04/04 03:53:19;;;;;;;9.93;3.87;;;4.10;99.90;;;;;;4958857;29;20437;-52
2021/04/04 03:55:47;;;;;;;4.23;3.33;;;4.10;99.90;;;;;;4959878;28;20428;-53
2021/04/04 03:58:14;;;;;;;7.60;4.50;;;4.00;99.90;;;;;;4959435;29;20458;-51
2021/04/04 04:00:44;;;;;;;6.83;3.93;;;4.00;99.90;;;;;;4959245;29;20464;-51
2021/04/04 04:03:11;;;;;;;4.50;3.80;;;4.00;99.90;;;;;;4958397;29;20496;-53
2021/04/04 04:05:37;;;;;;;7.97;4.87;;;4.00;99.90;;;;;;4958860;29;20485;-52
2021/04/04 04:08:07;;;;;;;7.77;4.73;;;4.00;99.90;;;;;;4958837;29;20463;-52
2021/04/04 04:10:35;;;;;;;7.50;4.60;;;3.90;99.90;;;;;;4959131;29;20462;-53
2021/04/04 04:13:02;;;;;;;7.20;4.87;;;3.90;99.90;;;;;;4958594;29;20472;-53
2021/04/04 04:15:30;;;;;;;6.90;4.60;;;3.90;99.90;;;;;;4959025;29;20424;-53
2021/04/04 04:17:59;;;;;;;5.03;4.23;;;3.90;99.90;;;;;;4958629;29;20797;-54
2021/04/04 04:20:26;;;;;;;7.17;4.63;;;3.90;99.90;;;;;;4961855;29;20428;-53
2021/04/04 04:22:53;;;;;;;8.67;4.87;;;4.00;99.90;;;;;;4962901;29;20433;-53
2021/04/04 04:25:21;;;;;;;6.33;4.53;;;3.90;99.90;;;;;;4962570;29;20464;-53
2021/04/04 04:27:49;;;;;;;13.47;5.30;;;4.00;99.90;;;;;;4962814;29;20465;-53
2021/04/04 04:30:17;;;;;;;4.53;4.00;;;3.90;99.90;;;;;;4962936;29;20444;-51
2021/04/04 04:32:44;;;;;;;6.67;4.47;;;3.90;99.90;;;;;;4962329;29;20444;-52
2021/04/04 04:35:12;;;;;;;6.20;3.83;;;3.90;99.90;;;;;;4962793;29;20781;-53
2021/04/04 04:37:40;;;;;;;7.60;4.07;;;3.90;99.90;;;;;;4962415;29;20445;-52
2021/04/04 04:40:10;;;;;;;4.07;3.63;;;3.80;99.90;;;;;;4961881;29;20504;-52
2021/04/04 04:42:41;;;;;;;6.80;4.10;;;3.70;99.90;;;;;;4962056;29;20485;-53
2021/04/04 04:45:16;;;;;;;7.47;5.80;;;3.80;99.90;;;;;;4962034;29;20516;-54
2021/04/04 04:47:42;;;;;;;5.33;3.97;;;3.80;99.90;;;;;;4962512;29;20496;-54
2021/04/04 04:50:09;;;;;;;7.10;4.47;;;3.80;99.90;;;;;;4962070;29;20469;-52
2021/04/04 04:52:37;;;;;;;9.87;4.13;;;3.80;99.90;;;;;;4962069;29;20480;-53
2021/04/04 04:55:04;;;;;;;6.60;4.20;;;3.80;99.90;;;;;;4962182;29;20456;-53
2021/04/04 04:57:30;;;;;;;6.60;4.10;;;3.70;99.90;;;;;;4961961;29;20449;-51
2021/04/04 05:00:00;;;;;;;6.03;4.60;;;3.80;99.90;;;;;;4962035;29;20445;-53
2021/04/04 05:02:26;;;;;;;4.00;3.60;;;3.80;99.90;;;;;;4962038;29;20472;-50
2021/04/04 05:04:52;;;;;;;9.70;4.50;;;3.90;99.90;;;;;;4962005;29;20491;-53
2021/04/04 05:07:19;;;;;;;4.70;4.00;;;3.90;99.90;;;;;;4962025;29;20464;-52
2021/04/04 05:09:47;;;;;;;3.80;3.43;;;3.90;99.90;;;;;;4961534;29;20429;-54
2021/04/04 05:12:20;;;;;;;7.13;3.93;;;3.90;99.90;;;;;;4961926;29;20818;-53
2021/04/04 05:14:47;;;;;;;6.07;3.93;;;3.90;99.90;;;;;;4962145;29;20465;-54
2021/04/04 05:17:13;;;;;;;10.60;4.20;;;3.90;99.90;;;;;;4961303;29;20457;-54
2021/04/04 05:19:40;;;;;;;5.13;3.50;;;3.90;99.90;;;;;;4961519;29;20444;-53
2021/04/04 05:22:08;;;;;;;5.60;3.80;;;4.00;99.90;;;;;;4961462;29;20481;-51
2021/04/04 05:24:34;;;;;;;8.57;5.63;;;4.00;99.90;;;;;;4961239;29;20476;-53
2021/04/04 05:27:02;;;;;;;6.10;4.67;;;4.00;99.90;;;;;;4961449;29;20437;-51
2021/04/04 05:29:28;;;;;;;4.57;3.57;;;4.00;99.90;;;;;;4961569;29;20456;-53
2021/04/04 05:31:56;;;;;;;6.57;4.43;;;4.00;99.90;;;;;;4961243;29;20431;-52
2021/04/04 05:34:27;;;;;;;6.00;4.10;;;4.00;99.90;;;;;;4960817;29;20456;-52
2021/04/04 05:36:54;;;;;;;9.50;4.33;;;3.90;99.90;;;;;;4961735;29;20433;-53
2021/04/04 05:39:23;;;;;;;10.93;4.33;;;4.00;99.90;;;;;;4961405;29;20451;-53
2021/04/04 05:41:51;;;;;;;6.87;4.10;;;4.00;99.90;;;;;;4961383;29;20444;-52
2021/04/04 05:44:23;;;;;;;6.93;3.80;;;4.00;99.90;;;;;;4960982;29;20476;-53
2021/04/04 05:46:56;;;;;;;6.37;4.73;;;4.00;99.90;;;;;;4961214;29;20429;-53
2021/04/04 05:49:33;;;;;;;4.90;4.40;;;4.00;99.90;;;;;;4961422;29;20445;-55
2021/04/04 05:52:15;;;;;;;5.10;3.80;;;4.10;99.90;;;;;;4961427;29;20433;-53
2021/04/04 05:55:05;;;;;;;6.73;4.00;;;4.20;99.90;;;;;;4961128;29;20461;-50
2021/04/04 05:57:35;;;;;;;13.03;3.90;;;4.20;99.90;;;;;;4962487;29;20901;-49
2021/04/04 06:00:06;;;;;;;5.23;4.03;;;4.30;99.90;;;;;;4961992;29;20444;-52
2021/04/04 06:02:53;;;;;;;6.80;4.00;;;4.30;99.90;;;;;;4966927;29;20476;-54
2021/04/04 06:06:09;;;;;;;9.13;4.27;;;4.30;99.90;;;;;;4980431;28;20479;-53
2021/04/04 06:09:06;;;;;;;7.20;4.53;;;4.40;99.90;;;;;;4935256;29;20464;-50
2021/04/04 06:11:41;;;;;;;4.67;3.50;;;4.40;99.90;;;;;;4980012;29;20416;-54
2021/04/04 06:14:16;;;;;;;5.80;3.80;;;4.50;99.90;;;;;;4979685;29;20428;-51
2021/04/04 06:16:51;;;;;;;4.83;3.83;;;4.50;99.90;;;;;;4979749;29;20428;-53
2021/04/04 06:19:28;;;;;;;5.57;4.17;;;4.50;99.90;;;;;;4979855;29;20455;-50
2021/04/04 06:22:03;;;;;;;5.20;3.63;;;4.50;99.90;;;;;;4979522;29;20428;-51
2021/04/04 06:24:34;;;;;;;5.80;4.07;;;4.60;99.90;;;;;;4979517;29;20478;-48
2021/04/04 06:27:09;;;;;;;5.93;2.83;;;4.70;99.90;;;;;;4979279;29;20432;-51
2021/04/04 06:29:43;;;;;;;6.70;3.00;;;4.80;99.90;;;;;;4979259;29;20428;-52
2021/04/04 06:32:19;;;;;;;10.60;3.00;;;5.00;99.90;;;;;;4978987;29;20431;-50
2021/04/04 06:34:50;;;;;;;5.30;4.43;;;5.00;99.90;;;;;;4979009;29;20432;-53
2021/04/04 06:37:33;;;;;;;4.97;3.03;;;5.00;99.90;;;;;;4979180;29;20431;-52
2021/04/04 06:40:05;;;;;;;5.73;3.00;;;5.10;99.90;;;;;;4978647;28;20463;-54
2021/04/04 06:42:45;;;;;;;4.33;3.40;;;5.20;99.90;;;;;;4978624;28;20444;-53
2021/04/04 06:45:19;;;;;;;7.27;2.60;;;5.20;99.30;;;;;;4979066;29;20475;-50
2021/04/04 06:48:12;;;;;;;3.40;2.13;;;5.20;99.10;;;;;;4978716;29;20430;-50
2021/04/04 06:50:46;;;;;;;4.00;3.03;;;5.30;99.00;;;;;;4978740;29;20440;-52
2021/04/04 06:53:25;;;;;;;4.27;2.53;;;5.40;98.60;;;;;;4978812;29;20427;-53
2021/04/04 06:56:00;;;;;;;3.47;2.73;;;5.40;98.10;;;;;;4978951;29;20428;-50
2021/04/04 06:58:56;;;;;;;5.40;3.20;;;5.40;98.10;;;;;;4979160;29;20458;-51
2021/04/04 07:01:35;;;;;;;6.23;3.43;;;5.40;98.60;;;;;;4979202;29;20432;-51
2021/04/04 07:04:08;;;;;;;5.70;2.93;;;5.50;98.60;;;;;;4978335;29;20475;-49
2021/04/04 07:07:03;;;;;;;3.20;2.87;;;5.60;98.70;;;;;;4978638;29;20469;-49
2021/04/04 07:09:54;;;;;;;5.93;3.10;;;5.70;98.90;;;;;;4978517;29;20423;-52
2021/04/04 07:12:39;;;;;;;7.20;3.03;;;5.80;98.70;;;;;;4978500;29;20458;-52
2021/04/04 07:15:12;;;;;;;14.93;3.40;;;5.90;98.80;;;;;;4977791;29;20439;-48
2021/04/04 07:17:54;;;;;;;3.57;2.80;;;5.90;99.00;;;;;;4977813;29;20435;-47
2021/04/04 07:20:34;;;;;;;4.30;2.70;;;5.90;99.30;;;;;;4978087;29;20439;-51
2021/04/04 07:23:27;;;;;;;4.30;2.80;;;6.00;99.70;;;;;;4978017;29;20436;-47
2021/04/04 07:26:01;;;;;;;3.90;2.40;;;6.20;99.90;;;;;;4977629;29;20487;-48
2021/04/04 07:28:56;;;;;;;6.80;3.60;;;6.30;99.90;;;;;;4978196;28;20456;-47
2021/04/04 07:31:26;;;;;;;4.07;2.20;;;6.40;99.40;;;;;;4977302;29;20433;-48
2021/04/04 07:34:03;;;;;;;5.50;3.07;;;6.40;99.70;;;;;;4977129;29;20448;-46
2021/04/04 07:36:41;;;;;;;5.63;3.27;;;6.50;99.60;;;;;;4977369;29;20442;-47
2021/04/04 07:39:18;;;;;;;5.93;2.40;;;6.50;99.50;;;;;;4977692;29;20416;-49
2021/04/04 07:41:53;;;;;;;7.53;3.10;;;6.60;99.30;;;;;;4978323;29;20427;-54
2021/04/04 07:44:24;;;;;;;6.40;2.40;;;6.70;98.90;;;;;;4978853;29;20487;-54
2021/04/04 07:46:57;;;;;;;3.87;2.77;;;6.80;98.70;;;;;;4978291;29;20436;-53
2021/04/04 07:49:34;;;;;;;5.30;2.30;;;7.00;99.10;;;;;;4978316;29;20420;-52
2021/04/04 07:52:05;;;;;;;4.57;2.23;;;7.00;98.40;;;;;;4978594;29;20443;-52
2021/04/04 07:54:41;;;;;;;2.90;1.77;;;7.10;97.40;;;;;;4979725;28;20492;-50
2021/04/04 07:57:17;;;;;;;3.60;2.40;;;7.10;96.50;;;;;;4981513;29;20443;-53
2021/04/04 07:59:47;;;;;;;2.03;1.83;;;7.20;95.80;;;;;;4982164;29;20444;-53
2021/04/04 08:02:19;;;;;;;4.73;2.10;;;7.30;95.30;;;;;;4981799;29;20472;-53
2021/04/04 08:04:50;;;;;;;5.03;2.27;;;7.30;95.20;;;;;;4981993;29;20523;-53
2021/04/04 08:07:23;;;;;;;3.80;2.17;;;7.40;95.80;;;;;;4982142;29;20412;-49
2021/04/04 08:09:55;;;;;;;8.17;3.10;;;7.40;96.50;;;;;;4982048;29;20447;-51
2021/04/04 08:12:34;;;;;;;6.20;2.87;;;7.60;97.50;;;;;;4981825;29;20443;-51
2021/04/04 08:15:05;;;;;;;5.57;2.63;;;8.00;97.50;;;;;;4982004;29;20849;-53
2021/04/04 08:17:34;;;;;;;9.00;3.03;;;9.30;96.10;;;;;;4981685;29;20439;-54
2021/04/04 08:20:06;;;;;;;8.90;3.20;;;11.10;90.90;;;;;;4981415;29;20444;-51
2021/04/04 08:22:41;;;;;;;8.30;3.30;;;12.80;82.40;;;;;;4981213;29;20827;-48
2021/04/04 08:25:12;;;;;;;5.40;3.10;;;14.10;73.40;;;;;;4980952;29;20514;-53
2021/04/04 08:27:44;;;;;;;6.83;3.53;;;15.00;66.80;;;;;;4980605;29;20416;-51
2021/04/04 08:30:17;;;;;;;15.60;6.07;;;15.40;61.80;;;;;;4980877;29;20468;-53
2021/04/04 08:32:49;;;;;;;7.67;3.70;;;16.30;59.20;;;;;;4980616;29;20440;-48
2021/04/04 08:35:21;;;;;;;6.10;4.23;;;17.30;56.70;;;;;;4980898;29;20435;-56
2021/04/04 08:37:53;;;;;;;12.63;3.57;;;18.40;52.80;;;;;;4981310;29;20464;-55
2021/04/04 08:40:21;;;;;;;5.60;3.60;;;18.80;50.20;;;;;;4980997;29;20424;-54
2021/04/04 08:42:49;;;;;;;6.70;3.77;;;18.70;49.40;;;;;;4980951;29;20424;-54
2021/04/04 08:45:20;;;;;;;6.83;4.30;;;18.90;48.90;;;;;;4980622;29;20472;-53
2021/04/04 08:47:49;;;;;;;8.33;4.47;;;19.50;48.20;;;;;;4980814;29;20428;-54
2021/04/04 08:50:17;;;;;;;7.40;4.23;;;20.10;47.00;;;;;;4981479;29;20447;-54
2021/04/04 08:52:49;;;;;;;7.60;5.07;;;20.30;46.10;;;;;;4980892;29;20493;-53
2021/04/04 08:55:20;;;;;;;13.73;4.80;;;20.60;45.70;;;;;;4981119;29;20443;-53
2021/04/04 08:57:48;;;;;;;8.70;5.77;;;20.70;44.60;;;;;;4982019;29;20419;-51
2021/04/04 09:00:17;;;;;;;7.27;4.40;;;19.90;44.90;;;;;;4982349;29;20432;-52
2021/04/04 09:02:46;;;;;;;12.77;7.63;;;19.60;45.50;;;;;;4981550;28;20493;-51
2021/04/04 09:05:15;;;;;;;9.27;5.37;;;19.50;45.90;;;;;;4981162;28;20464;-52
2021/04/04 09:07:43;;;;;;;8.93;5.80;;;19.20;46.80;;;;;;4982294;28;20435;-56
2021/04/04 09:10:13;;;;;;;8.47;5.23;;;19.30;47.50;;;;;;4982291;28;20515;-54
2021/04/04 09:12:41;;;;;;;7.13;4.10;;;19.30;47.10;;;;;;4982304;29;20579;-61
2021/04/04 09:15:08;;;;;;;7.07;4.23;;;18.90;47.00;;;;;;4981949;29;20439;-53
2021/04/04 09:17:35;;;;;;;7.93;4.87;;;18.90;46.80;;;;;;4981711;29;20442;-53
2021/04/04 09:20:04;;;;;;;8.43;5.13;;;19.10;46.90;;;;;;4981745;29;20447;-56
2021/04/04 09:22:32;;;;;;;7.10;5.10;;;19.30;46.70;;;;;;4981057;28;20458;-54
2021/04/04 09:25:02;;;;;;;11.83;6.10;;;19.60;46.20;;;;;;4980781;29;20472;-59
2021/04/04 09:27:35;;;;;;;8.90;5.13;;;19.90;45.80;;;;;;4981122;29;20472;-61
2021/04/04 09:30:05;;;;;;;10.67;4.30;;;20.00;45.40;;;;;;4979987;29;20437;-57
2021/04/04 09:32:38;;;;;;;7.00;4.27;;;20.00;44.90;;;;;;4980721;29;20447;-55
2021/04/04 09:35:07;;;;;;;8.00;5.40;;;20.10;44.40;;;;;;4980375;29;20455;-53
2021/04/04 09:37:34;;;;;;;11.63;5.03;;;20.10;44.70;;;;;;4980067;29;20440;-55
2021/04/04 09:40:06;;;;;;;6.27;4.50;;;20.00;44.30;;;;;;4979528;29;20448;-53
2021/04/04 09:42:35;;;;;;;7.37;4.23;;;19.70;44.50;;;;;;4980269;29;20428;-52
2021/04/04 09:45:18;;;;;;;11.50;4.60;;;19.60;44.50;;;;;;4980321;29;20464;-53
2021/04/04 09:47:45;;;;;;;9.80;4.60;;;19.50;45.30;;;;;;4980250;29;20454;-53
2021/04/04 09:50:23;;;;;;;10.43;4.20;;;19.40;45.20;;;;;;4979424;29;20455;-54
2021/04/04 09:52:50;;;;;;;9.03;5.00;;;18.80;45.60;;;;;;4979414;29;20428;-54
2021/04/04 09:55:18;;;;;;;11.30;5.27;;;19.10;46.00;;;;;;4979427;29;20455;-53
2021/04/04 09:57:46;;;;;;;9.57;4.70;;;19.40;45.40;;;;;;4979549;29;20490;-54
2021/04/04 10:00:18;;;;;;;7.53;4.87;;;20.20;45.10;;;;;;4979574;29;20447;-52
2021/04/04 10:02:46;;;;;;;7.20;4.20;;;20.70;44.00;;;;;;4978794;29;20511;-55
2021/04/04 10:05:25;;;;;;;7.57;4.47;;;20.70;44.40;;;;;;4979402;29;20498;-53
2021/04/04 10:07:51;;;;;;;13.47;5.80;;;20.50;43.90;;;;;;4979085;29;20447;-51
2021/04/04 10:10:28;;;;;;;7.40;5.13;;;19.90;45.00;;;;;;4978884;29;20483;-54
2021/04/04 10:12:56;;;;;;;10.97;4.33;;;19.50;45.70;;;;;;4979264;29;20447;-52
2021/04/04 10:15:22;;;;;;;7.47;4.93;;;19.50;45.70;;;;;;4979561;29;20443;-54
2021/04/04 10:17:53;;;;;;;6.50;3.90;;;19.30;45.30;;;;;;4977970;28;20451;-55
2021/04/04 10:20:30;;;;;;;12.27;4.63;;;18.60;46.40;;;;;;4979259;29;20482;-53
2021/04/04 10:23:01;;;;;;;10.53;5.23;;;18.60;47.40;;;;;;4978857;29;20443;-54
2021/04/04 10:25:27;;;;;;;16.77;5.07;;;18.60;47.30;;;;;;4978717;29;20467;-54
2021/04/04 10:28:00;;;;;;;8.33;4.47;;;18.00;48.00;;;;;;4978622;29;20443;-51
2021/04/04 10:30:31;;;;;;;7.10;4.63;;;17.00;49.60;;;;;;4978601;29;20459;-55
2021/04/04 10:33:16;;;;;;;8.73;4.73;;;16.20;50.80;;;;;;4978674;29;20464;-53
2021/04/04 10:35:43;;;;;;;7.50;4.20;;;15.60;52.50;;;;;;4978655;29;20468;-54
2021/04/04 10:38:11;;;;;;;7.17;4.10;;;15.70;52.60;;;;;;4978529;29;20462;-53
2021/04/04 10:40:46;;;;;;;10.33;5.63;;;15.70;53.00;;;;;;4978239;29;20443;-52
2021/04/04 10:43:15;;;;;;;11.23;5.23;;;16.10;52.40;;;;;;4977851;29;20483;-53
2021/04/04 10:45:58;;;;;;;14.83;4.63;;;15.60;52.00;;;;;;4977658;29;20480;-50
2021/04/04 10:48:26;;;;;;;10.07;3.90;;;14.90;52.40;;;;;;4977674;29;20447;-54
2021/04/04 10:50:52;;;;;;;14.30;3.90;;;14.10;53.80;;;;;;4978270;29;20448;-48
2021/04/04 10:53:19;;;;;;;6.57;4.10;;;13.40;55.00;;;;;;4978454;29;20447;-52
2021/04/04 10:55:45;;;;;;;6.43;3.97;;;12.60;56.40;;;;;;4979708;28;20428;-53
2021/04/04 10:58:20;;;;;;;7.60;4.00;;;12.40;57.50;;;;;;4978543;29;20428;-77
2021/04/04 11:03:22;;;;;;;7.60;4.30;;;12.20;59.00;;;;;;5581259;23;20468;-51
2021/04/04 11:05:51;;;;;;;12.80;4.70;;;12.50;59.30;;;;;;5038509;28;20477;-53
2021/04/04 11:08:18;;;;;;;4.80;2.77;;;12.70;59.40;;;;;;5037874;28;20464;-55
2021/04/04 11:13:39;;;;;;;9.77;4.10;;;13.20;58.70;;;;;;5479026;23;20493;-51
2021/04/04 11:16:08;;;;;;;6.60;3.70;;;13.50;57.50;;;;;;5018978;28;20406;-57
2021/04/04 11:18:37;;;;;;;6.43;3.50;;;13.40;57.90;;;;;;5018899;28;20419;-57
2021/04/04 11:21:07;;;;;;;5.60;3.80;;;13.40;58.10;;;;;;5019204;28;20442;-56
2021/04/04 11:23:34;;;;;;;8.43;3.40;;;13.20;57.60;;;;;;5018825;28;20434;-56
2021/04/04 11:26:00;;;;;;;7.73;3.57;;;12.80;57.40;;;;;;5019008;28;20512;-53
2021/04/04 11:28:26;;;;;;;12.17;4.17;;;12.30;58.80;;;;;;5018548;28;20448;-56
2021/04/04 11:30:55;;;;;;;9.10;5.00;;;12.20;59.80;;;;;;5018763;28;20441;-57
2021/04/04 11:33:29;;;;;;;11.03;3.60;;;12.20;60.60;;;;;;5018925;28;20446;-56
2021/04/04 11:36:17;;;;;;;7.67;4.13;;;12.20;61.40;;;;;;5018625;28;20448;-54
2021/04/04 11:39:07;;;;;;;10.10;4.93;;;12.10;62.90;;;;;;5015016;28;20462;-57
2021/04/04 11:41:33;;;;;;;9.53;5.90;;;12.00;63.40;;;;;;5018866;28;20418;-54
2021/04/04 11:44:22;;;;;;;9.53;3.83;;;11.70;64.20;;;;;;5018214;28;20437;-58
2021/04/04 11:46:52;;;;;;;15.37;4.43;;;11.70;65.30;;;;;;5018730;28;20453;-57
2021/04/04 11:49:49;;;;;;;16.03;4.60;;;11.60;66.10;;;;;;5018417;28;20438;-55
2021/04/04 11:52:48;;;;;;;7.40;3.47;;;11.40;65.10;;;;;;5018475;28;20414;-58
2021/04/04 11:55:17;;;;;;;6.77;3.67;;;11.30;64.50;;;;;;5018211;28;20509;-55
2021/04/04 11:57:45;;;;;;;5.90;3.30;;;11.30;64.20;;;;;;5018088;28;20489;-56
2021/04/04 12:00:28;;;;;;;6.53;3.63;;;11.40;64.70;;;;;;5018012;28;20450;-59
2021/04/04 12:03:01;;;;;;;6.20;3.33;;;11.50;66.10;;;;;;5018387;28;20422;-56
2021/04/04 12:05:33;;;;;;;8.13;3.70;;;11.60;67.20;;;;;;5018254;28;20542;-55
2021/04/04 12:08:00;;;;;;;11.70;4.27;;;11.80;66.80;;;;;;5018255;28;20437;-52
2021/04/04 12:10:28;;;;;;;8.20;3.30;;;12.00;67.20;;;;;;5017844;28;20468;-55
2021/04/04 12:12:54;;;;;;;5.87;4.33;;;12.30;66.80;;;;;;5018094;28;20470;-57
2021/04/04 12:15:22;;;;;;;8.70;3.90;;;12.50;65.60;;;;;;5018572;28;20473;-53
2021/04/04 12:17:51;;;;;;;6.63;3.27;;;12.50;64.60;;;;;;5018617;28;20452;-53
2021/04/04 12:20:22;;;;;;;8.00;3.50;;;12.30;63.60;;;;;;5018754;28;20446;-58
2021/04/04 12:22:48;;;;;;;7.83;3.00;;;12.10;65.20;;;;;;5018258;28;20410;-58
2021/04/04 12:25:16;;;;;;;8.00;4.03;;;11.90;65.70;;;;;;5017132;28;20478;-57
2021/04/04 12:27:44;;;;;;;8.63;4.00;;;12.00;67.20;;;;;;5018198;28;20449;-52
2021/04/04 12:30:23;;;;;;;20.03;3.83;;;12.00;66.90;;;;;;5018449;28;20438;-55
2021/04/04 12:32:59;;;;;;;14.00;4.70;;;11.70;67.70;;;;;;5018473;28;20422;-55
2021/04/04 12:35:26;;;;;;;11.00;4.50;;;11.70;69.10;;;;;;5018315;28;20434;-59
2021/04/04 12:37:53;;;;;;;8.53;4.50;;;12.00;69.90;;;;;;5018255;28;20457;-55
2021/04/04 12:40:19;;;;;;;7.43;3.37;;;12.30;68.40;;;;;;5019165;28;20426;-57
2021/04/04 12:42:45;;;;;;;5.73;3.40;;;12.10;68.30;;;;;;5021804;28;20452;-51
2021/04/04 12:45:14;;;;;;;9.40;3.40;;;11.90;68.20;;;;;;5021927;28;20473;-53
2021/04/04 12:47:42;;;;;;;8.53;4.30;;;11.90;68.80;;;;;;5021953;28;20442;-55
2021/04/04 12:50:10;;;;;;;9.87;3.47;;;12.00;70.00;;;;;;5021771;28;20431;-57
2021/04/04 12:52:40;;;;;;;5.90;3.27;;;12.00;69.10;;;;;;5021747;28;20442;-61
2021/04/04 12:55:24;;;;;;;4.60;3.33;;;12.10;69.50;;;;;;5021861;28;20421;-53
2021/04/04 12:57:55;;;;;;;10.40;3.80;;;12.00;70.00;;;;;;5021627;28;20433;-53
2021/04/04 13:00:23;;;;;;;7.50;4.57;;;12.10;69.00;;;;;;5021815;28;20414;-56
2021/04/04 13:03:01;;;;;;;7.20;3.53;;;12.10;69.00;;;;;;5021532;28;20453;-53
2021/04/04 13:05:33;;;;;;;5.60;3.30;;;12.10;68.90;;;;;;5021503;28;20480;-56
2021/04/04 13:08:00;;;;;;;9.50;3.50;;;12.10;68.90;;;;;;5021756;28;20457;-53
2021/04/04 13:10:27;;;;;;;10.93;4.40;;;12.10;69.50;;;;;;5021334;28;20446;-57
2021/04/04 13:12:54;;;;;;;5.60;3.93;;;12.10;69.50;;;;;;5021078;28;20549;-55
2021/04/04 13:15:22;;;;;;;11.27;4.47;;;12.20;69.20;;;;;;5021231;28;20822;-57
2021/04/04 13:17:49;;;;;;;10.33;4.23;;;12.20;68.90;;;;;;5021137;28;20434;-58
2021/04/04 13:20:16;;;;;;;9.77;3.50;;;12.20;70.40;;;;;;5021149;28;20439;-57
2021/04/04 13:22:43;;;;;;;8.57;3.63;;;11.90;69.70;;;;;;5021377;28;20445;-56